Terminal Aerodrome Forecast
Issued by NWS

Home | Current Version | Previous Version | Text Only | Print | Product List | Glossary On
Versions: 1 2 3 4 5 6 7 8 9 10 11 12
000
FTUS42 KTBW 160500
TAFLAL
TAF
KLAL 160536Z 1606/1706 VRB02KT P6SM SCT150
     FM161200 20006KT P6SM BKN250
     FM161500 24007KT P6SM SCT035 BKN250
     FM161800 30005KT P6SM VCTS SCT045CB BKN070
     FM170000 30006KT P6SM VCTS BKN045CB BKN250
      AMD NOT SKED TIL 161200=

USA.gov is the U.S. government's official web portal to all federal, state and local government web resources and services.